This is the latest recevied weather packets stored in our database for station/object DO6WO-10. If no packets are shown the sender has not sent any weather packets the latest 10 day(s).
| Time | Temp. | Humidity | Pressure | Rain* | Wind** | Luminosity | Snow |
|---|---|---|---|---|---|---|---|
| 1777359498 | 9.44° C | 40% | 1023.8 hPa | - | - | - | - |
| 1777356798 | 8.89° C | 40% | 1023.9 hPa | - | - | - | - |
| 1777354098 | 7.22° C | 42% | 1023.8 hPa | - | - | - | - |
| 1777351398 | 8.33° C | 39% | 1023.4 hPa | - | - | - | - |
| 1777348698 | 8.89° C | 40% | 1023.3 hPa | - | - | - | - |
| 1777345998 | 8.89° C | 39% | 1023.4 hPa | - | - | - | - |
| 1777343298 | 8.33° C | 40% | 1023.9 hPa | - | - | - | - |
| 1777340598 | 9.44° C | 38% | 1023.9 hPa | - | - | - | - |
| 1777337898 | 9.44° C | 39% | 1023.9 hPa | - | - | - | - |
| 1777335197 | 10.56° C | 37% | 1023.9 hPa | - | - | - | - |
| 1777332497 | 10.56° C | 38% | 1024.1 hPa | - | - | - | - |
| 1777329797 | 11.11° C | 36% | 1024.1 hPa | - | - | - | - |
| 1777327097 | 11.67° C | 36% | 1024.6 hPa | - | - | - | - |
| 1777324400 | 12.78° C | 34% | 1024.5 hPa | - | - | - | - |
| 1777321700 | 13.33° C | 34% | 1024.5 hPa | - | - | - | - |
| 1777319000 | 15° C | 32% | 1024.5 hPa | - | - | - | - |
| 1777316299 | 15.56° C | 32% | 1024.5 hPa | - | - | - | - |
| 1777313599 | 17.22° C | 30% | 1024.1 hPa | - | - | - | - |
| 1777310900 | 18.33° C | 29% | 1023.9 hPa | - | - | - | - |
| 1777308205 | 20° C | 28% | - | - | - | - | - |
| 1777308199 | 20° C | 28% | 1024 hPa | - | - | - | - |
| 1777305499 | 20° C | 29% | 1024.1 hPa | - | - | - | - |
| 1777302799 | 21.67° C | 28% | 1024.1 hPa | - | - | - | - |
| 1777300099 | 22.22° C | 27% | 1024.2 hPa | - | - | - | - |
| 1777297399 | 24.44° C | 26% | 1024.5 hPa | - | - | - | - |
* Rain since midnight (hover to see other rain measurements)
** Current wind speed in m/s (hover to see current wind gust speed)